Time;durP1;ratioP1;P1;durP2;ratioP2;P2;SDS_P1;SDS_P2;PMS_P1;PMS_P2;Temp;Humidity;BMP_temperature;BMP_pressure;BME280_temperature;BME280_humidity;BME280_pressure;Samples;Min_cycle;Max_cycle;Signal;HPM_P1;HPM_P2
2022/11/13 00:09:43;;;;;;;35.70;14.00;;;6.60;99.90;;;;;;21005197;28;20041;-78
2022/11/13 00:20:03;;;;;;;35.03;14.38;;;6.50;99.90;;;;;;21006451;28;20123;-78
2022/11/13 00:30:22;;;;;;;35.17;15.30;;;6.50;99.90;;;;;;21000595;28;20052;-78
2022/11/13 00:40:41;;;;;;;28.60;13.00;;;6.40;99.90;;;;;;21001485;28;20041;-78
2022/11/13 00:51:01;;;;;;;33.90;13.32;;;6.40;99.90;;;;;;20999313;28;20064;-78
2022/11/13 01:01:21;;;;;;;33.80;13.00;;;6.40;99.90;;;;;;20999995;28;20040;-78
2022/11/13 01:11:40;;;;;;;30.13;13.05;;;6.40;99.90;;;;;;21000977;28;20490;-78
2022/11/13 01:21:59;;;;;;;23.20;10.82;;;6.20;99.90;;;;;;20999065;28;20044;-78
2022/11/13 01:32:18;;;;;;;14.73;6.45;;;6.10;99.90;;;;;;20997508;28;20542;-77
2022/11/13 01:42:37;;;;;;;21.70;7.43;;;5.70;99.90;;;;;;20991353;28;20040;-77
2022/11/13 01:52:57;;;;;;;25.42;8.18;;;5.60;99.90;;;;;;20990455;28;20040;-77
2022/11/13 02:03:16;;;;;;;18.30;8.40;;;5.60;99.90;;;;;;20989619;28;20041;-76
2022/11/13 02:13:36;;;;;;;27.52;10.95;;;5.50;99.90;;;;;;20991112;28;20036;-77
2022/11/13 02:24:21;;;;;;;20.07;9.43;;;5.50;99.90;;;;;;21002586;28;20498;-77
2022/11/13 02:34:40;;;;;;;19.75;8.98;;;5.40;99.90;;;;;;21002721;28;20072;-77
2022/11/13 02:45:00;;;;;;;14.13;7.05;;;5.30;99.90;;;;;;21003009;28;20041;-77
2022/11/13 02:55:20;;;;;;;15.57;7.07;;;5.20;99.90;;;;;;21003390;28;20040;-77
2022/11/13 03:05:39;;;;;;;13.98;7.43;;;5.20;99.90;;;;;;21000747;28;20067;-77
2022/11/13 03:16:07;;;;;;;16.27;6.93;;;5.10;99.90;;;;;;20985022;28;20037;-77
2022/11/13 03:26:28;;;;;;;16.70;6.88;;;5.10;99.90;;;;;;21000697;28;20037;-77
2022/11/13 03:36:47;;;;;;;11.75;6.57;;;5.10;99.90;;;;;;20996851;28;20414;-77
2022/11/13 03:47:06;;;;;;;13.90;6.57;;;5.00;99.90;;;;;;20997660;28;20107;-77
2022/11/13 03:57:26;;;;;;;12.48;6.55;;;5.00;99.90;;;;;;20997779;28;20127;-77
2022/11/13 04:07:45;;;;;;;13.98;6.43;;;5.10;99.90;;;;;;20996160;28;20032;-77
2022/11/13 04:18:05;;;;;;;12.32;5.65;;;5.10;99.90;;;;;;20994100;28;20044;-78
2022/11/13 04:28:24;;;;;;;11.40;5.75;;;5.00;99.90;;;;;;20994097;28;20076;-77
2022/11/13 04:38:44;;;;;;;12.18;6.18;;;5.10;99.90;;;;;;20994175;28;20036;-77
2022/11/13 04:49:03;;;;;;;13.10;6.57;;;5.10;99.90;;;;;;20993857;28;20048;-78
2022/11/13 04:59:23;;;;;;;12.23;5.95;;;5.10;99.90;;;;;;20992111;28;20052;-77
2022/11/13 05:09:42;;;;;;;14.52;6.57;;;5.10;99.90;;;;;;20991672;28;20037;-77
2022/11/13 05:20:02;;;;;;;13.85;6.03;;;5.00;99.90;;;;;;20991479;28;20052;-78
2022/11/13 05:30:21;;;;;;;11.27;6.28;;;5.00;99.90;;;;;;20991225;28;20036;-77
2022/11/13 05:40:41;;;;;;;9.98;5.07;;;4.90;99.90;;;;;;20992534;28;20458;-77
2022/11/13 05:51:05;;;;;;;10.13;5.53;;;4.90;99.90;;;;;;20991044;28;20036;-78
2022/11/13 06:01:31;;;;;;;10.75;5.60;;;4.80;99.90;;;;;;21005499;28;20040;-77
2022/11/13 06:11:50;;;;;;;11.40;5.72;;;4.80;99.90;;;;;;21005131;28;20032;-77
2022/11/13 06:22:09;;;;;;;11.77;5.30;;;4.80;99.90;;;;;;21060090;28;20115;-77
2022/11/13 06:32:28;;;;;;;8.65;4.75;;;4.70;99.90;;;;;;21090838;28;20039;-78
2022/11/13 06:42:47;;;;;;;9.38;5.20;;;4.70;99.90;;;;;;21089375;28;20040;-77
2022/11/13 06:53:06;;;;;;;7.72;4.63;;;4.70;99.90;;;;;;21069602;28;20036;-77
2022/11/13 07:03:26;;;;;;;8.18;4.38;;;4.70;99.90;;;;;;21064071;28;20045;-77
2022/11/13 07:13:46;;;;;;;8.05;4.53;;;4.70;99.90;;;;;;20973690;28;20037;-78
2022/11/13 07:24:05;;;;;;;8.13;4.53;;;4.80;99.90;;;;;;20941986;28;20029;-78
2022/11/13 07:34:25;;;;;;;9.73;5.15;;;4.80;99.90;;;;;;20921251;28;20045;-78
2022/11/13 07:44:44;;;;;;;10.52;5.35;;;4.80;99.90;;;;;;20948860;28;20041;-79
2022/11/13 07:55:03;;;;;;;11.63;4.68;;;5.00;99.90;;;;;;21003517;28;20100;-79
2022/11/13 08:05:23;;;;;;;12.02;5.70;;;5.10;99.90;;;;;;20955865;28;20063;-78
2022/11/13 08:15:42;;;;;;;14.27;5.45;;;5.10;99.90;;;;;;20940223;28;20059;-77
2022/11/13 08:26:05;;;;;;;10.55;5.28;;;5.20;99.90;;;;;;20938187;28;20403;-78
2022/11/13 08:36:24;;;;;;;9.55;5.13;;;5.30;99.90;;;;;;20953790;28;20487;-78
2022/11/13 08:46:43;;;;;;;14.73;6.72;;;5.40;99.90;;;;;;20940760;28;20037;-78
2022/11/13 08:57:03;;;;;;;14.55;6.68;;;5.70;99.90;;;;;;20959026;28;20040;-78
2022/11/13 09:07:22;;;;;;;11.70;6.15;;;5.90;99.90;;;;;;20943921;28;20047;-79
2022/11/13 09:17:41;;;;;;;8.85;5.13;;;6.20;99.90;;;;;;20951746;28;20411;-76
2022/11/13 09:28:01;;;;;;;15.13;6.03;;;6.10;99.90;;;;;;20954620;28;20041;-77
2022/11/13 09:38:20;;;;;;;11.05;5.30;;;6.20;99.90;;;;;;20966845;28;20025;-77
2022/11/13 09:48:45;;;;;;;8.57;4.57;;;6.10;99.90;;;;;;20939733;28;20037;-77
2022/11/13 09:59:21;;;;;;;6.20;4.05;;;6.20;99.90;;;;;;20975191;28;20040;-77
2022/11/13 10:09:49;;;;;;;9.57;6.25;;;6.40;99.90;;;;;;21023345;28;20040;-76
2022/11/13 10:20:18;;;;;;;7.90;4.78;;;6.70;99.90;;;;;;21050881;28;20064;-77
2022/11/13 10:30:39;;;;;;;5.90;3.88;;;6.70;99.90;;;;;;21019252;28;20531;-76
2022/11/13 10:41:10;;;;;;;7.83;3.67;;;6.90;99.90;;;;;;20980062;28;20061;-76
2022/11/13 10:51:34;;;;;;;8.73;4.45;;;6.90;99.90;;;;;;20974487;28;20120;-76
2022/11/13 11:01:53;;;;;;;10.15;5.50;;;6.80;99.90;;;;;;21043394;28;20494;-76
2022/11/13 11:12:22;;;;;;;8.02;4.80;;;7.10;99.90;;;;;;20998380;28;20028;-76
2022/11/13 11:22:44;;;;;;;8.30;4.00;;;7.30;99.90;;;;;;20997541;28;20032;-76
2022/11/13 11:33:04;;;;;;;6.13;3.97;;;7.00;99.90;;;;;;20996445;28;20411;-76
2022/11/13 11:43:38;;;;;;;8.30;3.20;;;7.10;99.90;;;;;;20996110;28;20124;-76
2022/11/13 11:53:58;;;;;;;28.67;13.07;;;7.00;99.90;;;;;;21009738;28;20048;-76
2022/11/13 12:05:02;;;;;;;50.17;25.20;;;6.90;99.90;;;;;;21019453;28;20111;-76
2022/11/13 12:15:46;;;;;;;10.48;6.20;;;7.00;99.90;;;;;;20974313;28;20067;-76
2022/11/13 12:26:33;;;;;;;5.40;3.78;;;6.90;99.90;;;;;;21232413;27;20383;-77
2022/11/13 12:36:54;;;;;;;7.28;3.53;;;6.80;99.90;;;;;;21209677;27;20056;-77
2022/11/13 12:47:15;;;;;;;8.60;4.10;;;6.90;99.90;;;;;;21145773;28;20047;-76
2022/11/13 12:57:46;;;;;;;39.47;12.33;;;6.90;99.90;;;;;;21187455;27;20039;-78
2022/11/13 13:08:08;;;;;;;7.78;3.92;;;7.20;99.90;;;;;;21173946;27;20036;-77
2022/11/13 13:18:33;;;;;;;6.15;3.35;;;7.00;99.90;;;;;;21159671;28;20039;-76
2022/11/13 13:28:55;;;;;;;5.82;3.20;;;7.00;99.90;;;;;;21188174;27;20032;-77
2022/11/13 13:39:26;;;;;;;6.10;3.60;;;6.90;99.90;;;;;;21088834;28;20036;-77
2022/11/13 13:49:46;;;;;;;6.80;3.85;;;7.00;99.90;;;;;;21086582;28;20064;-77
2022/11/13 14:00:14;;;;;;;5.57;3.63;;;6.80;99.90;;;;;;21151680;28;20039;-77
2022/11/13 14:10:36;;;;;;;6.88;3.80;;;7.00;99.90;;;;;;21168068;28;20114;-77
2022/11/13 14:21:01;;;;;;;6.80;3.92;;;7.00;99.90;;;;;;21167882;28;20035;-77
2022/11/13 14:31:28;;;;;;;6.95;3.88;;;7.00;99.90;;;;;;21164750;28;20568;-77
2022/11/13 14:42:07;;;;;;;6.88;4.10;;;7.00;99.90;;;;;;21164099;28;20031;-77
2022/11/13 14:52:27;;;;;;;8.27;4.97;;;6.70;99.90;;;;;;21164194;28;20036;-77
2022/11/13 15:02:47;;;;;;;7.10;4.25;;;6.60;99.90;;;;;;21162277;28;20075;-77
2022/11/13 15:13:14;;;;;;;8.35;4.82;;;6.60;99.90;;;;;;21163804;28;20039;-77
2022/11/13 15:23:34;;;;;;;7.05;4.55;;;6.50;99.90;;;;;;21161902;28;20032;-77
2022/11/13 15:33:53;;;;;;;8.82;4.88;;;6.50;99.90;;;;;;21160927;28;20069;-77
2022/11/13 15:44:15;;;;;;;25.20;12.30;;;6.50;99.90;;;;;;21121416;28;20100;-77
2022/11/13 15:54:37;;;;;;;9.75;5.32;;;6.50;99.90;;;;;;21120176;28;20040;-77
2022/11/13 16:04:56;;;;;;;9.63;4.90;;;6.40;99.90;;;;;;21121158;28;20043;-77
2022/11/13 16:15:16;;;;;;;8.95;5.22;;;6.40;99.90;;;;;;21114999;28;20122;-78
2022/11/13 16:25:36;;;;;;;9.23;5.35;;;6.40;99.90;;;;;;21118582;28;20055;-76
2022/11/13 16:35:55;;;;;;;10.35;5.78;;;6.30;99.90;;;;;;21098587;28;20036;-79
2022/11/13 16:46:19;;;;;;;32.00;14.18;;;6.30;99.90;;;;;;21090269;28;20411;-79
2022/11/13 16:56:39;;;;;;;36.88;16.45;;;6.30;99.90;;;;;;21125370;28;20070;-79
2022/11/13 17:06:59;;;;;;;13.48;6.57;;;6.30;99.90;;;;;;21116124;28;20036;-79
2022/11/13 17:17:18;;;;;;;14.05;7.38;;;6.30;99.90;;;;;;21139840;28;20035;-78
2022/11/13 17:27:37;;;;;;;12.65;7.50;;;6.30;99.90;;;;;;21143979;28;20460;-79
2022/11/13 17:37:56;;;;;;;11.20;6.65;;;6.20;99.90;;;;;;21127840;28;20047;-79
2022/11/13 17:48:16;;;;;;;13.07;7.15;;;6.30;99.90;;;;;;21117643;28;20032;-79
2022/11/13 17:58:40;;;;;;;13.98;7.35;;;6.20;99.90;;;;;;21132436;28;20028;-79
2022/11/13 18:09:00;;;;;;;12.93;7.05;;;6.20;99.90;;;;;;21141328;28;20032;-79
2022/11/13 18:19:19;;;;;;;13.63;8.02;;;6.20;99.90;;;;;;21136999;28;20032;-79
2022/11/13 18:29:40;;;;;;;15.80;7.65;;;6.20;99.90;;;;;;21174694;28;20043;-79
2022/11/13 18:40:00;;;;;;;10.67;5.73;;;6.20;99.90;;;;;;21174861;28;20027;-80
2022/11/13 18:50:21;;;;;;;17.95;9.20;;;6.20;99.90;;;;;;21135631;28;20123;-79
2022/11/13 19:00:40;;;;;;;18.42;8.40;;;6.30;99.90;;;;;;21129375;28;20052;-79
2022/11/13 19:11:09;;;;;;;16.85;9.00;;;6.30;99.90;;;;;;21136334;28;20031;-79
2022/11/13 19:21:30;;;;;;;15.10;8.15;;;6.20;99.90;;;;;;21147091;28;20035;-79
2022/11/13 19:31:52;;;;;;;18.00;8.27;;;6.20;99.90;;;;;;21120219;28;20031;-77
2022/11/13 19:42:12;;;;;;;20.80;9.35;;;6.30;99.90;;;;;;21118917;28;20028;-77
2022/11/13 19:52:31;;;;;;;17.77;9.98;;;6.20;99.90;;;;;;21122841;28;20075;-79
2022/11/13 20:02:54;;;;;;;20.60;10.23;;;6.20;99.90;;;;;;21134674;28;20039;-78
2022/11/13 20:13:13;;;;;;;21.35;10.02;;;6.20;99.90;;;;;;21134205;28;20028;-78
2022/11/13 20:23:34;;;;;;;24.17;11.50;;;6.20;99.90;;;;;;21126030;28;20536;-78
2022/11/13 20:33:55;;;;;;;25.30;11.55;;;6.30;99.90;;;;;;21131041;28;20479;-79
2022/11/13 20:44:14;;;;;;;17.47;9.03;;;6.40;99.90;;;;;;21144093;28;20032;-79
2022/11/13 20:54:34;;;;;;;18.58;9.75;;;6.50;99.90;;;;;;21146050;28;20036;-79
2022/11/13 21:04:53;;;;;;;22.73;10.15;;;6.40;99.90;;;;;;21147531;28;20039;-79
2022/11/13 21:15:13;;;;;;;24.13;10.85;;;6.40;99.90;;;;;;21146817;28;20039;-79
2022/11/13 21:25:32;;;;;;;23.80;11.77;;;6.40;99.90;;;;;;21139897;28;20031;-78
2022/11/13 21:35:52;;;;;;;19.23;10.02;;;6.40;99.90;;;;;;21141014;28;20039;-78
2022/11/13 21:46:13;;;;;;;22.55;11.18;;;6.40;99.90;;;;;;21140444;28;20031;-78
2022/11/13 21:56:34;;;;;;;27.07;12.07;;;6.40;99.90;;;;;;21141637;28;20414;-78
2022/11/13 22:06:53;;;;;;;21.57;11.97;;;6.30;99.90;;;;;;21143767;28;20032;-79
2022/11/13 22:17:12;;;;;;;26.20;12.43;;;6.30;99.90;;;;;;21136302;28;20077;-78
2022/11/13 22:27:32;;;;;;;25.40;11.75;;;6.30;99.90;;;;;;21139748;28;20043;-79
2022/11/13 22:37:51;;;;;;;24.00;11.85;;;6.30;99.90;;;;;;21137516;28;20047;-79
2022/11/13 22:48:10;;;;;;;23.33;11.75;;;6.20;99.90;;;;;;21136505;28;20036;-79
2022/11/13 22:58:30;;;;;;;27.58;13.70;;;6.30;99.90;;;;;;21150387;28;20059;-78
2022/11/13 23:08:50;;;;;;;30.30;14.30;;;6.30;99.90;;;;;;21144499;27;20045;-78
2022/11/13 23:19:09;;;;;;;31.05;13.52;;;6.30;99.90;;;;;;21177896;28;20118;-79
2022/11/13 23:29:28;;;;;;;30.38;13.60;;;6.30;99.90;;;;;;21176592;28;20040;-79
2022/11/13 23:39:47;;;;;;;30.05;13.60;;;6.30;99.90;;;;;;21175761;28;20115;-78
2022/11/13 23:50:08;;;;;;;25.63;13.07;;;6.40;99.90;;;;;;21175856;28;20031;-79
